Main page
Satellite images 15-day forecastsClimateMarine weather Cyclones Lightning AirportsFAQ Newsletter About
Weather : Europe Africa North America South America Asia Australia-Oceania Others
Languages Contact

Gdańsk, Poland

Lech Wałęsa

latitude: 54-23N, longitude: 018-28E, elevation: 135 m


METAR: EPGD 221500Z 05011KT CAVOK 24/16 Q1019
short-TAF: out of date (44482 hours)
long-TAF: EPGD 221230Z 2212/2312 06008KT CAVOK TEMPO 2212/2217 BKN035CB PROB30 2302/2305 4000 BR

Time: 17:25 (15:25 UTC)

Current weather observation

The report was made 25 minutes ago, at 15:00 UTC  
Wind 11 kt from the Northeast
Temperature 24°C
Humidity 61%
Pressure 1019 hPa
Visibility 10 km or more
no clouds below 1500 m and no cumulonimbus

Change units

Forecast

The report was made 2 hours and 47 minutes ago, at 12:38 UTC  
Forecast valid from 22 at 12 UTC to 23 at 12 UTC
Wind 08 kt from the East/Northeast
Visibility 10 km or more
no clouds below 1500 m and no cumulonimbus
Temporary
from 22 at 12 UTC to 22 at 17 UTC
Broken clouds at a height of 3500 ft , Cumulonimbus.
Probability 30%
from 23 at 02 UTC to 23 at 05 UTC
Visibility 4000 m
mist
The information on this site is subject to a disclaimer
Weather : Europe Africa North America South America Asia Australia-Oceania Others
Satellite images 15-day forecastsClimateMarine weather Cyclones Lightning AirportsFAQ Languages Contact Newsletter About